createdAt,value
2023-11-11T00:02:05.011Z,90.89
2023-11-11T00:07:06.963Z,92.38
2023-11-11T00:12:09.418Z,93.41
2023-11-11T00:17:11.207Z,92.91
2023-11-11T00:22:13.968Z,92.18
2023-11-11T00:27:15.702Z,91.12
2023-11-11T00:32:18.583Z,90.90
2023-11-11T00:37:20.646Z,90.18
2023-11-11T00:42:23.220Z,89.57
2023-11-11T00:47:25.017Z,90.44
2023-11-11T00:52:26.709Z,90.76
2023-11-11T00:57:28.537Z,89.57
2023-11-11T01:02:30.256Z,88.29
2023-11-11T01:07:32.105Z,88.35
2023-11-11T01:12:33.925Z,88.03
2023-11-11T01:17:37.399Z,87.64
2023-11-11T01:22:39.551Z,87.78
2023-11-11T01:27:41.310Z,87.32
2023-11-11T01:32:43.089Z,86.04
2023-11-11T01:37:44.973Z,79.50
2023-11-11T01:42:47.103Z,78.79
2023-11-11T01:47:48.922Z,79.40
2023-11-11T01:52:52.185Z,82.03
2023-11-11T01:57:54.063Z,82.78
2023-11-11T02:02:58.219Z,83.14
2023-11-11T02:08:02.499Z,82.33
2023-11-11T02:13:04.506Z,81.54
2023-11-11T02:18:08.956Z,80.09
2023-11-11T02:23:10.834Z,79.94
2023-11-11T02:28:12.497Z,79.11
2023-11-11T02:33:14.331Z,78.08
2023-11-11T02:38:16.119Z,77.59
2023-11-11T02:43:17.883Z,78.67
2023-11-11T02:48:19.621Z,80.48
2023-11-11T02:53:22.072Z,79.88
2023-11-11T02:58:23.822Z,84.79
2023-11-11T03:03:27.039Z,85.67
2023-11-11T03:08:28.851Z,86.42
2023-11-11T03:13:30.826Z,87.69
2023-11-11T03:18:32.644Z,84.45
2023-11-11T03:23:34.828Z,82.53
2023-11-11T03:28:38.909Z,84.64
2023-11-11T03:33:40.583Z,87.18
2023-11-11T03:38:45.041Z,90.71
2023-11-11T03:43:46.805Z,93.83
2023-11-11T03:48:48.562Z,95.04
2023-11-11T03:53:50.987Z,96.05
2023-11-11T03:58:52.861Z,94.82
2023-11-11T04:03:54.663Z,95.39
2023-11-11T04:08:56.491Z,93.99
2023-11-11T04:14:01.089Z,92.68
2023-11-11T04:19:04.850Z,92.24
2023-11-11T04:24:07.236Z,93.54
2023-11-11T04:29:12.603Z,94.85
2023-11-11T04:34:14.974Z,96.04
2023-11-11T04:39:17.911Z,96.89
2023-11-11T04:44:19.771Z,95.56
2023-11-11T04:49:22.066Z,93.96
2023-11-11T04:54:23.727Z,93.06
2023-11-11T04:59:25.422Z,94.98
2023-11-11T05:04:27.326Z,96.11
2023-11-11T05:09:29.214Z,98.11
2023-11-11T05:14:31.502Z,98.80
2023-11-11T05:19:33.128Z,99.94
2023-11-11T05:24:34.841Z,100.00
2023-11-11T05:29:38.710Z,100.00
2023-11-11T05:34:40.551Z,99.27
2023-11-11T05:39:48.352Z,96.48
2023-11-11T05:44:50.598Z,92.87
2023-11-11T05:49:52.333Z,90.61
2023-11-11T05:54:55.699Z,87.83
2023-11-11T05:59:57.561Z,85.70
2023-11-11T06:04:59.376Z,84.50
2023-11-11T06:10:01.549Z,84.56
2023-11-11T06:15:07.087Z,86.48
2023-11-11T06:20:09.481Z,88.21
2023-11-11T06:25:11.654Z,89.22
2023-11-11T06:30:13.858Z,90.01
2023-11-11T06:35:18.146Z,87.36
2023-11-11T06:40:19.878Z,85.95
2023-11-11T06:45:21.686Z,87.76
2023-11-11T06:50:24.833Z,87.79
2023-11-11T06:55:29.074Z,87.77
2023-11-11T07:00:33.155Z,90.07
2023-11-11T07:05:35.359Z,91.19
2023-11-11T07:10:38.742Z,91.48
2023-11-11T07:15:42.823Z,91.74
2023-11-11T07:20:44.524Z,90.92
2023-11-11T07:25:47.464Z,90.61
2023-11-11T07:30:50.042Z,89.15
2023-11-11T07:35:54.255Z,87.17
2023-11-11T07:40:55.946Z,84.88
2023-11-11T07:45:57.826Z,85.19
2023-11-11T07:50:59.551Z,87.34
2023-11-11T07:56:04.265Z,90.16
2023-11-11T08:01:07.638Z,92.70
2023-11-11T08:06:11.479Z,92.93
2023-11-11T08:11:15.884Z,90.41
2023-11-11T08:16:19.982Z,87.86
2023-11-11T08:21:30.722Z,86.71
2023-11-11T08:26:32.569Z,86.16
2023-11-11T08:31:34.317Z,84.35
2023-11-11T08:36:48.511Z,84.53
2023-11-11T08:41:55.639Z,84.02
2023-11-11T08:46:57.410Z,83.10
2023-11-11T08:52:01.093Z,83.16
2023-11-11T08:57:03.032Z,83.28
2023-11-11T09:02:05.280Z,83.73
2023-11-11T09:07:08.651Z,83.66
2023-11-11T09:12:10.487Z,83.90
2023-11-11T09:17:13.611Z,82.58
2023-11-11T09:22:15.992Z,82.83
2023-11-11T09:27:17.722Z,83.26
2023-11-11T09:32:19.410Z,84.56
2023-11-11T09:37:21.230Z,85.50
2023-11-11T09:42:23.101Z,84.59
2023-11-11T09:47:28.751Z,82.62
2023-11-11T09:52:33.631Z,83.16
2023-11-11T09:57:38.394Z,83.77
2023-11-11T10:02:41.581Z,83.64
2023-11-11T10:07:43.932Z,83.95
2023-11-11T10:12:45.790Z,84.33
2023-11-11T10:17:47.644Z,82.26
2023-11-11T10:22:50.415Z,80.16
2023-11-11T10:27:56.445Z,79.66
2023-11-11T10:32:59.916Z,83.68
2023-11-11T10:38:01.877Z,87.68
2023-11-11T10:43:05.575Z,91.46
2023-11-11T10:48:10.847Z,93.63
2023-11-11T10:53:14.029Z,95.42
2023-11-11T10:58:18.346Z,96.31
2023-11-11T11:03:22.374Z,96.99
2023-11-11T11:08:51.537Z,95.38
2023-11-11T11:14:00.497Z,95.73
2023-11-11T11:19:02.129Z,94.94
2023-11-11T11:24:10.719Z,95.43
2023-11-11T11:29:17.822Z,94.78
2023-11-11T11:34:19.535Z,94.99
2023-11-11T11:39:28.478Z,95.74
2023-11-11T11:44:32.312Z,96.55
2023-11-11T11:49:35.976Z,98.01
2023-11-11T11:54:37.744Z,97.77
2023-11-11T11:59:39.516Z,98.62
2023-11-11T12:04:41.744Z,97.60
2023-11-11T12:09:43.658Z,95.52
2023-11-11T12:14:51.359Z,93.65
2023-11-11T12:19:55.414Z,90.74
2023-11-11T12:24:57.286Z,89.34
2023-11-11T12:29:59.091Z,85.89
2023-11-11T12:35:01.067Z,85.84
2023-11-11T12:40:02.814Z,83.97
2023-11-11T12:45:05.397Z,83.50
2023-11-11T12:50:09.555Z,80.02
2023-11-11T12:55:23.392Z,76.89
2023-11-11T13:00:25.477Z,79.30
2023-11-11T13:05:27.154Z,76.67
2023-11-11T13:10:29.257Z,77.85
2023-11-11T13:15:30.918Z,78.98
2023-11-11T13:20:32.625Z,78.10
2023-11-11T13:25:34.719Z,79.20
2023-11-11T13:30:40.323Z,78.51
2023-11-11T13:35:47.548Z,78.64
2023-11-11T13:40:50.624Z,80.36
2023-11-11T13:45:52.933Z,80.27
2023-11-11T13:50:55.416Z,80.43
2023-11-11T13:56:01.654Z,78.09
2023-11-11T14:01:09.654Z,80.02
2023-11-11T14:06:12.140Z,81.07
2023-11-11T14:11:13.917Z,77.54
2023-11-11T14:16:15.931Z,75.17
2023-11-11T14:21:18.073Z,74.19
2023-11-11T14:26:19.753Z,72.51
2023-11-11T14:31:25.014Z,71.36
2023-11-11T14:36:28.241Z,71.76
2023-11-11T14:41:31.856Z,71.61
2023-11-11T14:46:36.493Z,70.46
2023-11-11T14:51:40.089Z,71.02
2023-11-11T14:56:41.974Z,72.17
2023-11-11T15:01:43.776Z,74.10
2023-11-11T15:06:45.569Z,74.25
2023-11-11T15:11:47.387Z,74.99
2023-11-11T15:16:49.194Z,76.83
2023-11-11T15:21:51.786Z,77.15
2023-11-11T15:26:55.989Z,77.63
2023-11-11T15:31:59.848Z,77.36
2023-11-11T15:37:02.264Z,78.66
2023-11-11T15:42:04.303Z,84.16
2023-11-11T15:47:06.720Z,87.99
2023-11-11T15:52:11.777Z,91.56
2023-11-11T15:57:13.539Z,91.68
2023-11-11T16:02:15.447Z,93.78
2023-11-11T16:07:17.176Z,94.66
2023-11-11T16:12:19.038Z,97.02
2023-11-11T16:17:27.396Z,95.66
2023-11-11T16:22:29.587Z,96.45
2023-11-11T16:27:31.223Z,97.72
2023-11-11T16:32:32.876Z,100.00
2023-11-11T16:37:34.756Z,100.00
2023-11-11T16:42:39.832Z,100.00
2023-11-11T16:47:41.500Z,100.00
2023-11-11T16:52:43.260Z,100.00
2023-11-11T16:57:44.989Z,100.00
2023-11-11T17:02:46.722Z,100.00
2023-11-11T17:07:55.876Z,100.00
2023-11-11T17:12:57.768Z,100.00
2023-11-11T17:17:59.473Z,100.00
2023-11-11T17:23:01.358Z,100.00
2023-11-11T17:28:03.592Z,100.00
2023-11-11T17:33:09.634Z,100.00
2023-11-11T17:38:17.303Z,100.00
2023-11-11T17:43:19.822Z,100.00
2023-11-11T17:48:25.275Z,100.00
2023-11-11T17:53:27.802Z,100.00
2023-11-11T17:58:29.700Z,100.00
2023-11-11T18:03:34.300Z,100.00
2023-11-11T18:08:36.944Z,100.00
2023-11-11T18:13:42.780Z,100.00
2023-11-11T18:18:45.503Z,100.00
2023-11-11T18:23:47.318Z,100.00
2023-11-11T18:28:51.455Z,100.00
2023-11-11T18:33:55.393Z,100.00
2023-11-11T18:38:57.294Z,100.00
2023-11-11T18:43:59.478Z,100.00
2023-11-11T18:49:01.505Z,100.00
2023-11-11T18:54:03.312Z,99.80
2023-11-11T18:59:05.073Z,98.73
2023-11-11T19:04:10.083Z,97.49
2023-11-11T19:09:12.366Z,96.63
2023-11-11T19:14:14.300Z,96.79
2023-11-11T19:19:16.149Z,97.87
2023-11-11T19:24:17.927Z,98.44
2023-11-11T19:29:20.587Z,98.64
2023-11-11T19:34:22.405Z,99.59
2023-11-11T19:39:25.048Z,99.88
2023-11-11T19:44:26.930Z,99.34
2023-11-11T19:49:28.833Z,98.94
2023-11-11T19:54:30.644Z,98.76
2023-11-11T19:59:33.983Z,99.35
2023-11-11T20:04:37.272Z,99.02
2023-11-11T20:09:42.078Z,98.55
2023-11-11T20:14:44.686Z,98.94
2023-11-11T20:19:46.389Z,97.74
2023-11-11T20:24:49.544Z,97.13
2023-11-11T20:29:53.291Z,95.52
2023-11-11T20:34:55.017Z,96.31
2023-11-11T20:39:56.751Z,95.85
2023-11-11T20:44:58.910Z,96.54
2023-11-11T20:50:01.159Z,96.48
2023-11-11T20:55:03.132Z,96.08
2023-11-11T21:00:07.197Z,96.58
2023-11-11T21:05:15.486Z,96.33
2023-11-11T21:10:18.362Z,96.85
2023-11-11T21:15:20.596Z,96.81
2023-11-11T21:20:22.413Z,97.15
2023-11-11T21:25:24.392Z,97.13
2023-11-11T21:30:26.140Z,96.66
2023-11-11T21:35:27.883Z,96.15
2023-11-11T21:40:29.793Z,96.73
2023-11-11T21:45:31.538Z,95.89
2023-11-11T21:50:33.251Z,95.84
2023-11-11T21:55:35.004Z,96.04
2023-11-11T22:00:36.682Z,96.25
2023-11-11T22:05:40.608Z,96.67
2023-11-11T22:10:42.719Z,96.15
2023-11-11T22:15:44.973Z,96.14
2023-11-11T22:20:51.057Z,96.28
2023-11-11T22:25:52.771Z,96.59
2023-11-11T22:30:55.217Z,96.46
2023-11-11T22:35:56.858Z,96.77
2023-11-11T22:40:58.568Z,97.15
2023-11-11T22:46:10.278Z,97.66
2023-11-11T22:51:12.099Z,97.69
2023-11-11T22:56:13.862Z,99.00
2023-11-11T23:01:15.657Z,98.88
2023-11-11T23:06:20.325Z,98.63
2023-11-11T23:11:22.036Z,98.96
2023-11-11T23:16:25.020Z,99.55
2023-11-11T23:21:27.358Z,99.30
2023-11-11T23:26:29.680Z,99.71
2023-11-11T23:31:31.413Z,100.00
2023-11-11T23:36:33.218Z,100.00
2023-11-11T23:41:36.304Z,100.00
2023-11-11T23:46:41.155Z,100.00
2023-11-11T23:51:49.454Z,100.00
2023-11-11T23:56:51.806Z,100.00
